sensor_id;sensor_type;location;lat;lon;timestamp;P1;durP1;ratioP1;P2;durP2;ratioP2
75377;SDS011;63959;51.960;5.886;2023-07-31T00:00:28;4.25;;;1.13;;
75377;SDS011;63959;51.960;5.886;2023-07-31T00:02:59;6.07;;;1.50;;
75377;SDS011;63959;51.960;5.886;2023-07-31T00:05:30;4.32;;;1.35;;
75377;SDS011;63959;51.960;5.886;2023-07-31T00:07:59;3.85;;;1.60;;
75377;SDS011;63959;51.960;5.886;2023-07-31T00:10:28;4.78;;;1.60;;
75377;SDS011;63959;51.960;5.886;2023-07-31T00:12:56;4.80;;;1.90;;
75377;SDS011;63959;51.960;5.886;2023-07-31T00:15:25;3.10;;;1.13;;
75377;SDS011;63959;51.960;5.886;2023-07-31T00:17:54;4.88;;;1.45;;
75377;SDS011;63959;51.960;5.886;2023-07-31T00:20:23;3.47;;;1.48;;
75377;SDS011;63959;51.960;5.886;2023-07-31T00:22:54;2.78;;;1.15;;
75377;SDS011;63959;51.960;5.886;2023-07-31T00:25:23;3.38;;;1.15;;
75377;SDS011;63959;51.960;5.886;2023-07-31T00:27:51;5.00;;;1.10;;
75377;SDS011;63959;51.960;5.886;2023-07-31T00:30:20;3.70;;;1.45;;
75377;SDS011;63959;51.960;5.886;2023-07-31T00:32:50;3.25;;;1.30;;
75377;SDS011;63959;51.960;5.886;2023-07-31T00:35:19;5.05;;;1.55;;
75377;SDS011;63959;51.960;5.886;2023-07-31T00:37:48;3.95;;;1.60;;
75377;SDS011;63959;51.960;5.886;2023-07-31T00:40:19;5.22;;;1.70;;
75377;SDS011;63959;51.960;5.886;2023-07-31T00:42:48;5.13;;;2.00;;
75377;SDS011;63959;51.960;5.886;2023-07-31T00:45:16;6.25;;;1.98;;
75377;SDS011;63959;51.960;5.886;2023-07-31T00:47:48;8.10;;;2.88;;
75377;SDS011;63959;51.960;5.886;2023-07-31T00:50:17;9.80;;;3.33;;
75377;SDS011;63959;51.960;5.886;2023-07-31T00:52:46;8.45;;;3.92;;
75377;SDS011;63959;51.960;5.886;2023-07-31T00:55:19;11.85;;;4.40;;
75377;SDS011;63959;51.960;5.886;2023-07-31T00:57:49;18.50;;;6.32;;
75377;SDS011;63959;51.960;5.886;2023-07-31T01:00:18;20.95;;;7.38;;
75377;SDS011;63959;51.960;5.886;2023-07-31T01:02:44;20.67;;;6.40;;
75377;SDS011;63959;51.960;5.886;2023-07-31T01:05:16;21.45;;;6.88;;
75377;SDS011;63959;51.960;5.886;2023-07-31T01:07:51;22.60;;;7.65;;
75377;SDS011;63959;51.960;5.886;2023-07-31T01:10:23;35.13;;;10.02;;
75377;SDS011;63959;51.960;5.886;2023-07-31T01:12:54;22.92;;;8.23;;
75377;SDS011;63959;51.960;5.886;2023-07-31T01:15:25;44.88;;;11.88;;
75377;SDS011;63959;51.960;5.886;2023-07-31T01:17:53;25.33;;;7.32;;
75377;SDS011;63959;51.960;5.886;2023-07-31T01:20:22;31.88;;;8.85;;
75377;SDS011;63959;51.960;5.886;2023-07-31T01:22:59;24.35;;;7.80;;
75377;SDS011;63959;51.960;5.886;2023-07-31T01:28:10;23.90;;;8.27;;
75377;SDS011;63959;51.960;5.886;2023-07-31T01:30:41;24.83;;;8.25;;
75377;SDS011;63959;51.960;5.886;2023-07-31T01:33:12;22.13;;;7.85;;
75377;SDS011;63959;51.960;5.886;2023-07-31T01:35:43;23.33;;;7.07;;
75377;SDS011;63959;51.960;5.886;2023-07-31T01:38:12;20.25;;;7.50;;
75377;SDS011;63959;51.960;5.886;2023-07-31T01:40:41;24.30;;;7.25;;
75377;SDS011;63959;51.960;5.886;2023-07-31T01:43:12;23.55;;;7.90;;
75377;SDS011;63959;51.960;5.886;2023-07-31T01:45:41;30.52;;;9.55;;
75377;SDS011;63959;51.960;5.886;2023-07-31T01:48:12;23.65;;;7.88;;
75377;SDS011;63959;51.960;5.886;2023-07-31T01:50:41;31.70;;;8.35;;
75377;SDS011;63959;51.960;5.886;2023-07-31T01:53:09;21.92;;;7.55;;
75377;SDS011;63959;51.960;5.886;2023-07-31T01:55:39;28.15;;;9.18;;
75377;SDS011;63959;51.960;5.886;2023-07-31T01:58:08;19.98;;;7.90;;
75377;SDS011;63959;51.960;5.886;2023-07-31T02:00:42;25.02;;;8.05;;
75377;SDS011;63959;51.960;5.886;2023-07-31T02:03:12;19.60;;;6.78;;
75377;SDS011;63959;51.960;5.886;2023-07-31T02:05:43;22.90;;;7.43;;
75377;SDS011;63959;51.960;5.886;2023-07-31T02:08:12;19.50;;;6.68;;
75377;SDS011;63959;51.960;5.886;2023-07-31T02:10:41;32.28;;;8.80;;
75377;SDS011;63959;51.960;5.886;2023-07-31T02:13:10;17.30;;;7.82;;
75377;SDS011;63959;51.960;5.886;2023-07-31T02:15:38;15.38;;;5.90;;
75377;SDS011;63959;51.960;5.886;2023-07-31T02:18:10;16.73;;;5.82;;
75377;SDS011;63959;51.960;5.886;2023-07-31T02:20:38;22.45;;;7.35;;
75377;SDS011;63959;51.960;5.886;2023-07-31T02:23:07;19.88;;;6.55;;
75377;SDS011;63959;51.960;5.886;2023-07-31T02:25:36;21.65;;;6.85;;
75377;SDS011;63959;51.960;5.886;2023-07-31T02:28:04;24.17;;;8.68;;
75377;SDS011;63959;51.960;5.886;2023-07-31T02:30:33;19.70;;;6.38;;
75377;SDS011;63959;51.960;5.886;2023-07-31T02:33:02;19.10;;;6.90;;
75377;SDS011;63959;51.960;5.886;2023-07-31T02:35:33;15.77;;;5.55;;
75377;SDS011;63959;51.960;5.886;2023-07-31T02:38:02;20.30;;;6.07;;
75377;SDS011;63959;51.960;5.886;2023-07-31T02:40:31;21.13;;;6.55;;
75377;SDS011;63959;51.960;5.886;2023-07-31T02:42:59;19.63;;;5.82;;
75377;SDS011;63959;51.960;5.886;2023-07-31T02:45:28;18.75;;;6.05;;
75377;SDS011;63959;51.960;5.886;2023-07-31T02:47:57;13.60;;;5.63;;
75377;SDS011;63959;51.960;5.886;2023-07-31T02:50:26;22.50;;;6.45;;
75377;SDS011;63959;51.960;5.886;2023-07-31T02:52:58;17.80;;;6.07;;
75377;SDS011;63959;51.960;5.886;2023-07-31T02:55:26;15.95;;;5.93;;
75377;SDS011;63959;51.960;5.886;2023-07-31T02:57:55;19.00;;;5.90;;
75377;SDS011;63959;51.960;5.886;2023-07-31T03:00:24;17.33;;;6.78;;
75377;SDS011;63959;51.960;5.886;2023-07-31T03:02:54;22.13;;;7.38;;
75377;SDS011;63959;51.960;5.886;2023-07-31T03:05:23;22.30;;;7.35;;
75377;SDS011;63959;51.960;5.886;2023-07-31T03:07:52;18.73;;;7.00;;
75377;SDS011;63959;51.960;5.886;2023-07-31T03:10:23;22.85;;;6.60;;
75377;SDS011;63959;51.960;5.886;2023-07-31T03:12:52;19.70;;;6.45;;
75377;SDS011;63959;51.960;5.886;2023-07-31T03:15:21;15.35;;;5.80;;
75377;SDS011;63959;51.960;5.886;2023-07-31T03:17:50;18.15;;;6.65;;
75377;SDS011;63959;51.960;5.886;2023-07-31T03:20:18;20.90;;;6.70;;
75377;SDS011;63959;51.960;5.886;2023-07-31T03:22:47;21.05;;;7.03;;
75377;SDS011;63959;51.960;5.886;2023-07-31T03:25:16;20.10;;;7.47;;
75377;SDS011;63959;51.960;5.886;2023-07-31T03:27:47;23.00;;;6.60;;
75377;SDS011;63959;51.960;5.886;2023-07-31T03:30:16;16.38;;;5.88;;
75377;SDS011;63959;51.960;5.886;2023-07-31T03:32:44;18.80;;;6.70;;
75377;SDS011;63959;51.960;5.886;2023-07-31T03:35:13;24.88;;;8.15;;
75377;SDS011;63959;51.960;5.886;2023-07-31T03:37:42;17.77;;;6.00;;
75377;SDS011;63959;51.960;5.886;2023-07-31T03:40:11;22.05;;;6.70;;
75377;SDS011;63959;51.960;5.886;2023-07-31T03:42:40;17.95;;;5.72;;
75377;SDS011;63959;51.960;5.886;2023-07-31T03:45:11;12.45;;;4.50;;
75377;SDS011;63959;51.960;5.886;2023-07-31T03:47:40;15.25;;;5.68;;
75377;SDS011;63959;51.960;5.886;2023-07-31T03:50:09;18.02;;;4.95;;
75377;SDS011;63959;51.960;5.886;2023-07-31T03:52:37;17.35;;;6.07;;
75377;SDS011;63959;51.960;5.886;2023-07-31T03:55:06;22.17;;;6.15;;
75377;SDS011;63959;51.960;5.886;2023-07-31T03:57:35;14.02;;;5.18;;
75377;SDS011;63959;51.960;5.886;2023-07-31T04:00:04;15.88;;;4.90;;
75377;SDS011;63959;51.960;5.886;2023-07-31T04:05:08;19.30;;;5.85;;
75377;SDS011;63959;51.960;5.886;2023-07-31T04:07:37;14.25;;;4.30;;
75377;SDS011;63959;51.960;5.886;2023-07-31T04:10:06;11.93;;;4.45;;
75377;SDS011;63959;51.960;5.886;2023-07-31T04:12:35;16.30;;;5.45;;
75377;SDS011;63959;51.960;5.886;2023-07-31T04:15:04;16.45;;;6.60;;
75377;SDS011;63959;51.960;5.886;2023-07-31T04:17:33;19.08;;;5.47;;
75377;SDS011;63959;51.960;5.886;2023-07-31T04:20:02;19.30;;;6.55;;
75377;SDS011;63959;51.960;5.886;2023-07-31T04:22:33;14.15;;;6.07;;
75377;SDS011;63959;51.960;5.886;2023-07-31T04:25:02;19.98;;;6.38;;
75377;SDS011;63959;51.960;5.886;2023-07-31T04:27:30;16.38;;;5.18;;
75377;SDS011;63959;51.960;5.886;2023-07-31T04:29:59;17.38;;;6.32;;
75377;SDS011;63959;51.960;5.886;2023-07-31T04:32:28;14.48;;;4.85;;
75377;SDS011;63959;51.960;5.886;2023-07-31T04:34:57;16.17;;;5.72;;
75377;SDS011;63959;51.960;5.886;2023-07-31T04:37:26;17.60;;;6.25;;
75377;SDS011;63959;51.960;5.886;2023-07-31T04:39:57;18.90;;;5.63;;
75377;SDS011;63959;51.960;5.886;2023-07-31T04:42:26;15.57;;;5.05;;
75377;SDS011;63959;51.960;5.886;2023-07-31T04:44:55;14.63;;;4.32;;
75377;SDS011;63959;51.960;5.886;2023-07-31T04:47:23;18.88;;;5.55;;
75377;SDS011;63959;51.960;5.886;2023-07-31T04:49:52;17.50;;;5.63;;
75377;SDS011;63959;51.960;5.886;2023-07-31T04:52:21;15.05;;;5.35;;
75377;SDS011;63959;51.960;5.886;2023-07-31T04:54:49;15.45;;;6.63;;
75377;SDS011;63959;51.960;5.886;2023-07-31T04:57:20;14.38;;;4.72;;
75377;SDS011;63959;51.960;5.886;2023-07-31T04:59:49;12.23;;;4.75;;
75377;SDS011;63959;51.960;5.886;2023-07-31T05:02:18;14.93;;;4.43;;
75377;SDS011;63959;51.960;5.886;2023-07-31T05:04:46;15.85;;;5.22;;
75377;SDS011;63959;51.960;5.886;2023-07-31T05:07:15;16.20;;;5.90;;
75377;SDS011;63959;51.960;5.886;2023-07-31T05:09:44;18.10;;;4.97;;
75377;SDS011;63959;51.960;5.886;2023-07-31T05:12:12;14.82;;;5.18;;
75377;SDS011;63959;51.960;5.886;2023-07-31T05:14:44;15.18;;;5.40;;
75377;SDS011;63959;51.960;5.886;2023-07-31T05:17:12;13.23;;;4.60;;
75377;SDS011;63959;51.960;5.886;2023-07-31T05:19:41;17.50;;;5.18;;
75377;SDS011;63959;51.960;5.886;2023-07-31T05:22:10;12.18;;;4.57;;
75377;SDS011;63959;51.960;5.886;2023-07-31T05:24:38;13.75;;;5.43;;
75377;SDS011;63959;51.960;5.886;2023-07-31T05:27:07;17.13;;;5.53;;
75377;SDS011;63959;51.960;5.886;2023-07-31T05:29:36;12.13;;;4.63;;
75377;SDS011;63959;51.960;5.886;2023-07-31T05:32:07;13.80;;;5.43;;
75377;SDS011;63959;51.960;5.886;2023-07-31T05:34:36;13.93;;;5.95;;
75377;SDS011;63959;51.960;5.886;2023-07-31T05:37:05;15.68;;;5.15;;
75377;SDS011;63959;51.960;5.886;2023-07-31T05:39:34;14.68;;;5.53;;
75377;SDS011;63959;51.960;5.886;2023-07-31T05:42:03;14.38;;;5.18;;
75377;SDS011;63959;51.960;5.886;2023-07-31T05:44:32;12.57;;;4.65;;
75377;SDS011;63959;51.960;5.886;2023-07-31T05:47:00;16.40;;;5.38;;
75377;SDS011;63959;51.960;5.886;2023-07-31T05:49:31;13.70;;;5.45;;
75377;SDS011;63959;51.960;5.886;2023-07-31T05:52:00;11.60;;;4.28;;
75377;SDS011;63959;51.960;5.886;2023-07-31T05:54:29;14.40;;;4.22;;
75377;SDS011;63959;51.960;5.886;2023-07-31T05:56:57;15.68;;;5.93;;
75377;SDS011;63959;51.960;5.886;2023-07-31T05:59:26;11.68;;;4.90;;
75377;SDS011;63959;51.960;5.886;2023-07-31T06:01:56;14.85;;;5.22;;
75377;SDS011;63959;51.960;5.886;2023-07-31T06:04:25;11.10;;;3.80;;
75377;SDS011;63959;51.960;5.886;2023-07-31T06:06:56;11.93;;;4.32;;
75377;SDS011;63959;51.960;5.886;2023-07-31T06:09:25;15.40;;;5.93;;
75377;SDS011;63959;51.960;5.886;2023-07-31T06:11:57;12.20;;;4.32;;
75377;SDS011;63959;51.960;5.886;2023-07-31T06:14:26;18.40;;;5.57;;
75377;SDS011;63959;51.960;5.886;2023-07-31T06:16:54;12.27;;;4.13;;
75377;SDS011;63959;51.960;5.886;2023-07-31T06:19:23;10.88;;;3.55;;
75377;SDS011;63959;51.960;5.886;2023-07-31T06:21:52;14.13;;;5.28;;
75377;SDS011;63959;51.960;5.886;2023-07-31T06:24:23;11.43;;;4.10;;
75377;SDS011;63959;51.960;5.886;2023-07-31T06:26:52;12.95;;;4.53;;
75377;SDS011;63959;51.960;5.886;2023-07-31T06:29:23;10.65;;;3.50;;
75377;SDS011;63959;51.960;5.886;2023-07-31T06:31:51;13.73;;;4.90;;
75377;SDS011;63959;51.960;5.886;2023-07-31T06:34:20;13.80;;;5.07;;
75377;SDS011;63959;51.960;5.886;2023-07-31T06:36:49;12.57;;;4.35;;
75377;SDS011;63959;51.960;5.886;2023-07-31T06:39:18;15.32;;;5.43;;
75377;SDS011;63959;51.960;5.886;2023-07-31T06:41:49;12.50;;;5.32;;
75377;SDS011;63959;51.960;5.886;2023-07-31T06:44:20;9.93;;;4.38;;
75377;SDS011;63959;51.960;5.886;2023-07-31T06:46:51;11.85;;;4.47;;
75377;SDS011;63959;51.960;5.886;2023-07-31T06:49:20;14.02;;;3.80;;
75377;SDS011;63959;51.960;5.886;2023-07-31T06:51:49;11.60;;;4.30;;
75377;SDS011;63959;51.960;5.886;2023-07-31T06:54:17;8.18;;;3.17;;
75377;SDS011;63959;51.960;5.886;2023-07-31T06:56:49;11.75;;;4.43;;
75377;SDS011;63959;51.960;5.886;2023-07-31T06:59:17;7.85;;;3.30;;
75377;SDS011;63959;51.960;5.886;2023-07-31T07:01:46;7.65;;;3.00;;
75377;SDS011;63959;51.960;5.886;2023-07-31T07:04:15;9.88;;;3.50;;
75377;SDS011;63959;51.960;5.886;2023-07-31T07:06:43;7.25;;;3.80;;
75377;SDS011;63959;51.960;5.886;2023-07-31T07:09:12;7.97;;;3.25;;
75377;SDS011;63959;51.960;5.886;2023-07-31T07:11:41;6.30;;;2.33;;
75377;SDS011;63959;51.960;5.886;2023-07-31T07:14:12;9.70;;;3.50;;
75377;SDS011;63959;51.960;5.886;2023-07-31T07:16:41;6.20;;;2.40;;
75377;SDS011;63959;51.960;5.886;2023-07-31T07:19:13;6.88;;;2.40;;
75377;SDS011;63959;51.960;5.886;2023-07-31T07:21:45;7.88;;;2.70;;
75377;SDS011;63959;51.960;5.886;2023-07-31T07:24:14;5.45;;;2.42;;
75377;SDS011;63959;51.960;5.886;2023-07-31T07:26:42;5.75;;;2.40;;
75377;SDS011;63959;51.960;5.886;2023-07-31T07:29:14;3.63;;;1.55;;
75377;SDS011;63959;51.960;5.886;2023-07-31T07:31:43;4.68;;;2.10;;
75377;SDS011;63959;51.960;5.886;2023-07-31T07:34:11;5.22;;;1.90;;
75377;SDS011;63959;51.960;5.886;2023-07-31T07:36:40;5.10;;;1.80;;
75377;SDS011;63959;51.960;5.886;2023-07-31T07:39:09;5.22;;;1.70;;
75377;SDS011;63959;51.960;5.886;2023-07-31T07:41:38;3.85;;;1.60;;
75377;SDS011;63959;51.960;5.886;2023-07-31T07:44:07;4.70;;;1.50;;
75377;SDS011;63959;51.960;5.886;2023-07-31T07:46:39;4.80;;;1.73;;
75377;SDS011;63959;51.960;5.886;2023-07-31T07:49:07;4.45;;;1.63;;
75377;SDS011;63959;51.960;5.886;2023-07-31T07:51:36;4.07;;;1.40;;
75377;SDS011;63959;51.960;5.886;2023-07-31T07:54:05;4.57;;;1.60;;
75377;SDS011;63959;51.960;5.886;2023-07-31T07:56:33;3.75;;;1.58;;
75377;SDS011;63959;51.960;5.886;2023-07-31T07:59:02;3.13;;;1.30;;
75377;SDS011;63959;51.960;5.886;2023-07-31T08:01:31;4.80;;;1.55;;
75377;SDS011;63959;51.960;5.886;2023-07-31T08:04:02;3.30;;;1.30;;
75377;SDS011;63959;51.960;5.886;2023-07-31T08:06:31;3.22;;;1.30;;
75377;SDS011;63959;51.960;5.886;2023-07-31T08:09:00;3.40;;;1.58;;
75377;SDS011;63959;51.960;5.886;2023-07-31T08:11:31;5.05;;;1.48;;
75377;SDS011;63959;51.960;5.886;2023-07-31T08:14:01;3.63;;;1.67;;
75377;SDS011;63959;51.960;5.886;2023-07-31T08:16:30;3.95;;;1.92;;
75377;SDS011;63959;51.960;5.886;2023-07-31T08:19:02;7.28;;;1.75;;
75377;SDS011;63959;51.960;5.886;2023-07-31T08:21:31;4.50;;;2.00;;
75377;SDS011;63959;51.960;5.886;2023-07-31T08:23:59;5.95;;;2.10;;
75377;SDS011;63959;51.960;5.886;2023-07-31T08:26:28;4.50;;;1.83;;
75377;SDS011;63959;51.960;5.886;2023-07-31T08:28:58;6.32;;;2.72;;
75377;SDS011;63959;51.960;5.886;2023-07-31T08:31:26;4.38;;;1.88;;
75377;SDS011;63959;51.960;5.886;2023-07-31T08:33:55;5.10;;;2.47;;
75377;SDS011;63959;51.960;5.886;2023-07-31T08:36:26;5.68;;;2.55;;
75377;SDS011;63959;51.960;5.886;2023-07-31T08:38:55;6.07;;;2.92;;
75377;SDS011;63959;51.960;5.886;2023-07-31T08:41:24;6.63;;;2.83;;
75377;SDS011;63959;51.960;5.886;2023-07-31T08:43:53;5.47;;;2.20;;
75377;SDS011;63959;51.960;5.886;2023-07-31T08:46:23;5.40;;;2.60;;
75377;SDS011;63959;51.960;5.886;2023-07-31T08:48:53;6.30;;;2.40;;
75377;SDS011;63959;51.960;5.886;2023-07-31T08:51:26;5.22;;;2.20;;
75377;SDS011;63959;51.960;5.886;2023-07-31T08:53:55;8.13;;;3.35;;
75377;SDS011;63959;51.960;5.886;2023-07-31T08:56:24;5.22;;;2.40;;
75377;SDS011;63959;51.960;5.886;2023-07-31T08:58:53;7.13;;;3.40;;
75377;SDS011;63959;51.960;5.886;2023-07-31T09:01:23;7.53;;;3.05;;
75377;SDS011;63959;51.960;5.886;2023-07-31T09:03:53;8.30;;;4.13;;
75377;SDS011;63959;51.960;5.886;2023-07-31T09:06:23;5.70;;;3.15;;
75377;SDS011;63959;51.960;5.886;2023-07-31T09:08:55;7.00;;;3.50;;
75377;SDS011;63959;51.960;5.886;2023-07-31T09:11:24;6.20;;;3.35;;
75377;SDS011;63959;51.960;5.886;2023-07-31T09:13:53;5.55;;;2.65;;
75377;SDS011;63959;51.960;5.886;2023-07-31T09:16:27;5.00;;;2.58;;
75377;SDS011;63959;51.960;5.886;2023-07-31T09:18:58;6.13;;;3.30;;
75377;SDS011;63959;51.960;5.886;2023-07-31T09:21:30;6.22;;;3.08;;
75377;SDS011;63959;51.960;5.886;2023-07-31T09:24:01;6.28;;;3.28;;
75377;SDS011;63959;51.960;5.886;2023-07-31T09:26:31;8.95;;;4.10;;
75377;SDS011;63959;51.960;5.886;2023-07-31T09:29:00;8.32;;;4.32;;
75377;SDS011;63959;51.960;5.886;2023-07-31T09:31:33;7.72;;;4.63;;
75377;SDS011;63959;51.960;5.886;2023-07-31T09:34:02;7.72;;;4.15;;
75377;SDS011;63959;51.960;5.886;2023-07-31T09:36:31;6.82;;;4.40;;
75377;SDS011;63959;51.960;5.886;2023-07-31T09:39:04;10.30;;;5.70;;
75377;SDS011;63959;51.960;5.886;2023-07-31T09:41:32;10.40;;;5.75;;
75377;SDS011;63959;51.960;5.886;2023-07-31T09:44:04;9.73;;;5.22;;
75377;SDS011;63959;51.960;5.886;2023-07-31T09:46:34;10.70;;;5.32;;
75377;SDS011;63959;51.960;5.886;2023-07-31T09:49:07;9.13;;;5.25;;
75377;SDS011;63959;51.960;5.886;2023-07-31T09:51:35;9.30;;;5.30;;
75377;SDS011;63959;51.960;5.886;2023-07-31T09:54:11;10.30;;;6.18;;
75377;SDS011;63959;51.960;5.886;2023-07-31T09:56:41;11.52;;;5.93;;
75377;SDS011;63959;51.960;5.886;2023-07-31T09:59:11;9.75;;;4.65;;
75377;SDS011;63959;51.960;5.886;2023-07-31T10:01:40;14.48;;;7.68;;
75377;SDS011;63959;51.960;5.886;2023-07-31T10:04:10;14.05;;;7.30;;
75377;SDS011;63959;51.960;5.886;2023-07-31T10:06:39;9.30;;;5.50;;
75377;SDS011;63959;51.960;5.886;2023-07-31T10:09:09;12.23;;;6.85;;
75377;SDS011;63959;51.960;5.886;2023-07-31T10:11:41;11.07;;;6.25;;
75377;SDS011;63959;51.960;5.886;2023-07-31T10:14:10;9.40;;;5.65;;
75377;SDS011;63959;51.960;5.886;2023-07-31T10:16:39;11.32;;;6.55;;
75377;SDS011;63959;51.960;5.886;2023-07-31T10:19:08;12.02;;;7.22;;
75377;SDS011;63959;51.960;5.886;2023-07-31T10:21:37;15.73;;;8.50;;
75377;SDS011;63959;51.960;5.886;2023-07-31T10:24:06;10.90;;;6.65;;
75377;SDS011;63959;51.960;5.886;2023-07-31T10:26:36;10.38;;;6.53;;
75377;SDS011;63959;51.960;5.886;2023-07-31T10:29:08;14.18;;;8.88;;
75377;SDS011;63959;51.960;5.886;2023-07-31T10:31:37;12.85;;;7.82;;
75377;SDS011;63959;51.960;5.886;2023-07-31T10:34:06;14.10;;;7.80;;
75377;SDS011;63959;51.960;5.886;2023-07-31T10:36:35;14.48;;;8.20;;
75377;SDS011;63959;51.960;5.886;2023-07-31T10:39:04;11.52;;;7.75;;
75377;SDS011;63959;51.960;5.886;2023-07-31T10:41:33;12.73;;;7.35;;
75377;SDS011;63959;51.960;5.886;2023-07-31T10:44:01;12.38;;;7.25;;
75377;SDS011;63959;51.960;5.886;2023-07-31T10:46:34;13.98;;;6.82;;
75377;SDS011;63959;51.960;5.886;2023-07-31T10:51:37;12.00;;;7.93;;
75377;SDS011;63959;51.960;5.886;2023-07-31T10:54:12;12.95;;;7.97;;
75377;SDS011;63959;51.960;5.886;2023-07-31T10:56:44;11.70;;;7.10;;
75377;SDS011;63959;51.960;5.886;2023-07-31T10:59:13;12.38;;;7.03;;
75377;SDS011;63959;51.960;5.886;2023-07-31T11:01:52;16.02;;;9.02;;
75377;SDS011;63959;51.960;5.886;2023-07-31T11:04:23;13.13;;;7.95;;
75377;SDS011;63959;51.960;5.886;2023-07-31T11:06:56;13.95;;;8.35;;
75377;SDS011;63959;51.960;5.886;2023-07-31T11:09:27;14.13;;;7.35;;
75377;SDS011;63959;51.960;5.886;2023-07-31T11:11:56;13.25;;;7.25;;
75377;SDS011;63959;51.960;5.886;2023-07-31T11:14:25;10.75;;;6.35;;
75377;SDS011;63959;51.960;5.886;2023-07-31T11:16:56;13.57;;;8.02;;
75377;SDS011;63959;51.960;5.886;2023-07-31T11:19:25;12.95;;;7.65;;
75377;SDS011;63959;51.960;5.886;2023-07-31T11:21:54;13.10;;;7.53;;
75377;SDS011;63959;51.960;5.886;2023-07-31T11:24:21;15.32;;;7.78;;
75377;SDS011;63959;51.960;5.886;2023-07-31T11:26:50;12.93;;;7.28;;
75377;SDS011;63959;51.960;5.886;2023-07-31T11:29:19;15.45;;;8.00;;
75377;SDS011;63959;51.960;5.886;2023-07-31T11:31:48;11.20;;;6.82;;
75377;SDS011;63959;51.960;5.886;2023-07-31T11:34:19;12.98;;;7.25;;
75377;SDS011;63959;51.960;5.886;2023-07-31T11:36:55;14.65;;;8.43;;
75377;SDS011;63959;51.960;5.886;2023-07-31T11:39:24;9.00;;;5.65;;
75377;SDS011;63959;51.960;5.886;2023-07-31T11:41:58;13.10;;;7.10;;
75377;SDS011;63959;51.960;5.886;2023-07-31T11:44:27;10.77;;;6.63;;
75377;SDS011;63959;51.960;5.886;2023-07-31T11:47:05;11.18;;;6.47;;
75377;SDS011;63959;51.960;5.886;2023-07-31T11:49:39;11.38;;;6.32;;
75377;SDS011;63959;51.960;5.886;2023-07-31T11:52:07;9.80;;;6.35;;
75377;SDS011;63959;51.960;5.886;2023-07-31T11:54:36;11.65;;;6.72;;
75377;SDS011;63959;51.960;5.886;2023-07-31T11:57:05;9.32;;;5.88;;
75377;SDS011;63959;51.960;5.886;2023-07-31T11:59:34;10.45;;;6.72;;
75377;SDS011;63959;51.960;5.886;2023-07-31T12:02:03;13.30;;;7.38;;
75377;SDS011;63959;51.960;5.886;2023-07-31T12:04:32;8.50;;;5.35;;
75377;SDS011;63959;51.960;5.886;2023-07-31T12:07:04;11.57;;;6.80;;
75377;SDS011;63959;51.960;5.886;2023-07-31T12:09:32;8.27;;;5.43;;
75377;SDS011;63959;51.960;5.886;2023-07-31T12:12:01;15.27;;;6.07;;
75377;SDS011;63959;51.960;5.886;2023-07-31T12:14:30;9.10;;;6.07;;
75377;SDS011;63959;51.960;5.886;2023-07-31T12:16:59;10.40;;;6.28;;
75377;SDS011;63959;51.960;5.886;2023-07-31T12:19:28;9.80;;;6.60;;
75377;SDS011;63959;51.960;5.886;2023-07-31T12:21:58;7.95;;;4.95;;
75377;SDS011;63959;51.960;5.886;2023-07-31T12:24:29;9.10;;;5.18;;
75377;SDS011;63959;51.960;5.886;2023-07-31T12:26:58;10.02;;;5.70;;
75377;SDS011;63959;51.960;5.886;2023-07-31T12:29:33;9.95;;;5.30;;
75377;SDS011;63959;51.960;5.886;2023-07-31T12:32:02;9.75;;;5.20;;
75377;SDS011;63959;51.960;5.886;2023-07-31T12:34:31;10.98;;;5.85;;
75377;SDS011;63959;51.960;5.886;2023-07-31T12:37:10;12.55;;;5.80;;
75377;SDS011;63959;51.960;5.886;2023-07-31T12:39:41;9.13;;;5.32;;
75377;SDS011;63959;51.960;5.886;2023-07-31T12:42:10;10.30;;;5.28;;
75377;SDS011;63959;51.960;5.886;2023-07-31T12:44:38;9.80;;;5.53;;
75377;SDS011;63959;51.960;5.886;2023-07-31T12:47:07;10.98;;;6.25;;
75377;SDS011;63959;51.960;5.886;2023-07-31T12:49:36;10.05;;;5.18;;
75377;SDS011;63959;51.960;5.886;2023-07-31T12:52:05;8.60;;;5.25;;
75377;SDS011;63959;51.960;5.886;2023-07-31T12:54:33;10.02;;;5.40;;
75377;SDS011;63959;51.960;5.886;2023-07-31T12:57:05;9.10;;;5.32;;
75377;SDS011;63959;51.960;5.886;2023-07-31T12:59:34;11.05;;;5.72;;
75377;SDS011;63959;51.960;5.886;2023-07-31T13:02:02;11.32;;;5.63;;
75377;SDS011;63959;51.960;5.886;2023-07-31T13:04:31;10.38;;;5.82;;
75377;SDS011;63959;51.960;5.886;2023-07-31T13:07:00;12.57;;;6.88;;
75377;SDS011;63959;51.960;5.886;2023-07-31T13:09:29;10.63;;;6.10;;
75377;SDS011;63959;51.960;5.886;2023-07-31T13:11:57;10.63;;;6.28;;
75377;SDS011;63959;51.960;5.886;2023-07-31T13:14:29;10.05;;;6.53;;
75377;SDS011;63959;51.960;5.886;2023-07-31T13:16:57;10.20;;;5.95;;
75377;SDS011;63959;51.960;5.886;2023-07-31T13:19:26;11.32;;;6.10;;
75377;SDS011;63959;51.960;5.886;2023-07-31T13:21:55;9.75;;;5.90;;
75377;SDS011;63959;51.960;5.886;2023-07-31T13:24:26;11.77;;;6.55;;
75377;SDS011;63959;51.960;5.886;2023-07-31T13:26:56;9.93;;;5.45;;
75377;SDS011;63959;51.960;5.886;2023-07-31T13:29:25;9.73;;;5.32;;
75377;SDS011;63959;51.960;5.886;2023-07-31T13:31:56;10.30;;;5.38;;
75377;SDS011;63959;51.960;5.886;2023-07-31T13:34:25;10.25;;;5.60;;
75377;SDS011;63959;51.960;5.886;2023-07-31T13:36:54;9.98;;;5.40;;
75377;SDS011;63959;51.960;5.886;2023-07-31T13:39:22;8.20;;;5.07;;
75377;SDS011;63959;51.960;5.886;2023-07-31T13:41:51;8.98;;;4.88;;
75377;SDS011;63959;51.960;5.886;2023-07-31T13:44:20;9.25;;;4.93;;
75377;SDS011;63959;51.960;5.886;2023-07-31T13:46:49;7.28;;;4.60;;
75377;SDS011;63959;51.960;5.886;2023-07-31T13:51:54;9.93;;;5.50;;
75377;SDS011;63959;51.960;5.886;2023-07-31T13:54:23;9.82;;;4.70;;
75377;SDS011;63959;51.960;5.886;2023-07-31T13:56:51;8.93;;;4.40;;
75377;SDS011;63959;51.960;5.886;2023-07-31T13:59:20;9.63;;;4.38;;
75377;SDS011;63959;51.960;5.886;2023-07-31T14:01:49;10.52;;;4.55;;
75377;SDS011;63959;51.960;5.886;2023-07-31T14:04:15;9.25;;;5.10;;
75377;SDS011;63959;51.960;5.886;2023-07-31T14:06:44;9.57;;;4.88;;
75377;SDS011;63959;51.960;5.886;2023-07-31T14:09:18;10.80;;;5.30;;
75377;SDS011;63959;51.960;5.886;2023-07-31T14:11:47;11.05;;;5.20;;
75377;SDS011;63959;51.960;5.886;2023-07-31T14:14:16;8.75;;;5.28;;
75377;SDS011;63959;51.960;5.886;2023-07-31T14:16:45;10.25;;;5.18;;
75377;SDS011;63959;51.960;5.886;2023-07-31T14:19:13;8.35;;;4.90;;
75377;SDS011;63959;51.960;5.886;2023-07-31T14:21:42;13.02;;;6.30;;
75377;SDS011;63959;51.960;5.886;2023-07-31T14:24:11;8.93;;;5.05;;
75377;SDS011;63959;51.960;5.886;2023-07-31T14:26:42;13.77;;;6.25;;
75377;SDS011;63959;51.960;5.886;2023-07-31T14:29:11;10.85;;;5.80;;
75377;SDS011;63959;51.960;5.886;2023-07-31T14:31:39;12.55;;;6.38;;
75377;SDS011;63959;51.960;5.886;2023-07-31T14:34:08;10.10;;;4.90;;
75377;SDS011;63959;51.960;5.886;2023-07-31T14:36:38;12.50;;;6.18;;
75377;SDS011;63959;51.960;5.886;2023-07-31T14:39:06;15.20;;;6.43;;
75377;SDS011;63959;51.960;5.886;2023-07-31T14:41:35;9.93;;;5.07;;
75377;SDS011;63959;51.960;5.886;2023-07-31T14:44:06;12.10;;;5.65;;
75377;SDS011;63959;51.960;5.886;2023-07-31T14:46:35;10.40;;;5.55;;
75377;SDS011;63959;51.960;5.886;2023-07-31T14:49:04;10.38;;;5.65;;
75377;SDS011;63959;51.960;5.886;2023-07-31T14:51:33;9.45;;;5.32;;
75377;SDS011;63959;51.960;5.886;2023-07-31T14:54:01;10.20;;;4.70;;
75377;SDS011;63959;51.960;5.886;2023-07-31T14:56:30;9.52;;;5.28;;
75377;SDS011;63959;51.960;5.886;2023-07-31T14:59:02;11.43;;;5.32;;
75377;SDS011;63959;51.960;5.886;2023-07-31T15:01:33;12.52;;;5.35;;